Etusivu
METAR-TAF:

METAR-TAF

Lentoasemat :

Bückeburg, Saksa

Leveyspiiri: 52-17N, Pituuspiiri: 009-05E, korkeus merenpinnasta: 70 m

Tämänhetkinen sää

Tämä raportti tehtiin 59 minuuttia sitten, kello 02.20 UTC
Tuuli 6 kn etelästä/lounaasta
Lämpötila 10°C
Kosteus 87%
Ilmanpaine 1014 hPa
Näkyvyys 10 km tai enemmän
Pilvistä 18000 ft:n korkeudessa

METAR: ETHB 260220Z 20006KT 9999 OVC180 10/08 Q1014 BLU

Aika: 05:19 (03:19 UTC)


TAF: puuttuu

Säähavainnot ja -ennusteet yli 4000 lentoasemalta (METAR- ja TAF-raportit).

Käytössä olevat sääasemat on merkitty karttaan keltaisilla ja punaisilla pisteillä.

Aseta hiiri pisteen päälle nähdäksesi sääaseman nimen.

Klikkaa sitten nähdäksesi säähavainnot ja -ennusteet.

Kartan vaihtaminen: klikkaa mustalla rastilla varustettuja vihreitä pisteitä, niin voit zoomata sisään; viivalla varustettua vihreää pistettä, niin voit zoomata ulos tai vihreitä nuolia, niin pääset viereisille kartoille.


METAR-TAF: